Time;durP1;ratioP1;P1;durP2;ratioP2;P2;SDS_P1;SDS_P2;PMS_P1;PMS_P2;Temp;Humidity;BMP_temperature;BMP_pressure;BME280_temperature;BME280_humidity;BME280_pressure;Samples;Min_cycle;Max_cycle;Signal;HPM_P1;HPM_P2
2021/12/18 00:01:36;;;;;;;31.60;11.73;;;;;;;8.72;78.47;103351.28;5046093;28;20103;-65
2021/12/18 00:04:04;;;;;;;30.35;11.50;;;;;;;8.75;78.51;103353.06;5043409;28;20052;-65
2021/12/18 00:06:30;;;;;;;34.70;12.30;;;;;;;8.61;79.54;103350.44;5044934;28;20052;-66
2021/12/18 00:08:58;;;;;;;32.92;12.68;;;;;;;8.70;78.90;103350.44;5046655;28;20575;-66
2021/12/18 00:11:25;;;;;;;29.40;11.05;;;;;;;8.67;79.29;103349.59;5046033;28;20037;-65
2021/12/18 00:13:52;;;;;;;29.88;13.20;;;;;;;8.88;78.81;103346.03;5045583;28;20079;-66
2021/12/18 00:16:18;;;;;;;32.13;12.43;;;;;;;8.93;77.92;103346.88;5049084;28;20098;-66
2021/12/18 00:18:47;;;;;;;33.03;11.00;;;;;;;8.93;78.62;103345.16;5048642;28;20099;-67
2021/12/18 00:21:17;;;;;;;34.63;11.50;;;;;;;9.16;77.81;103345.06;5048721;28;20128;-68
2021/12/18 00:23:44;;;;;;;37.83;12.13;;;;;;;9.05;77.49;103344.22;5032181;28;21216;-67
2021/12/18 00:26:10;;;;;;;33.30;11.98;;;;;;;8.83;78.60;103337.34;5047730;28;20041;-67
2021/12/18 00:28:37;;;;;;;38.05;12.60;;;;;;;8.86;78.55;103337.31;5046104;28;20094;-67
2021/12/18 00:31:03;;;;;;;30.85;12.43;;;;;;;8.88;78.31;103332.94;5048116;28;20103;-68
2021/12/18 00:33:30;;;;;;;48.20;13.13;;;;;;;8.86;78.64;103334.72;5046741;28;20046;-68
2021/12/18 00:35:56;;;;;;;41.33;13.52;;;;;;;8.77;78.98;103341.69;5046358;28;20493;-68
2021/12/18 00:38:28;;;;;;;34.45;12.60;;;;;;;8.83;79.26;103342.56;5039785;28;20083;-68
2021/12/18 00:41:11;;;;;;;39.03;12.52;;;;;;;9.05;77.80;103332.03;5044350;28;20056;-68
2021/12/18 00:44:01;;;;;;;41.67;13.13;;;;;;;9.08;77.46;103325.91;5046394;28;20409;-67
2021/12/18 00:46:27;;;;;;;46.05;13.13;;;;;;;9.06;77.87;103338.09;5038426;28;20159;-67
2021/12/18 00:48:53;;;;;;;34.67;12.73;;;;;;;9.11;77.83;103321.50;5045735;28;20189;-67
2021/12/18 00:51:19;;;;;;;37.33;12.25;;;;;;;9.05;77.74;103332.03;5045940;28;20068;-67
2021/12/18 00:53:47;;;;;;;52.03;14.65;;;;;;;8.93;78.32;103323.34;5046412;28;20934;-67
2021/12/18 00:56:14;;;;;;;46.83;13.27;;;;;;;8.67;79.17;103326.03;5045888;28;20080;-67
2021/12/18 00:58:40;;;;;;;38.58;12.90;;;;;;;8.67;79.29;103324.31;5039827;28;20049;-67
2021/12/18 01:01:09;;;;;;;43.50;13.40;;;;;;;8.83;79.27;103326.88;5046253;28;20045;-68
2021/12/18 01:03:36;;;;;;;44.30;13.50;;;;;;;8.87;78.81;103326.00;5044420;28;20045;-67
2021/12/18 01:06:04;;;;;;;51.15;14.70;;;;;;;8.90;78.47;103323.34;5045462;28;20124;-68
2021/12/18 01:08:30;;;;;;;45.05;15.57;;;;;;;8.86;79.05;103321.63;5045650;28;20398;-67
2021/12/18 01:11:16;;;;;;;40.53;13.82;;;;;;;8.90;78.24;103328.59;5046882;28;20049;-67
2021/12/18 01:13:56;;;;;;;55.70;14.57;;;;;;;8.69;79.56;103322.53;5041225;28;20060;-67
2021/12/18 01:16:25;;;;;;;42.75;15.02;;;;;;;8.76;79.57;103318.16;5047874;28;20072;-67
2021/12/18 01:24:19;;;;;;;57.05;15.48;;;;;;;8.83;79.25;103322.50;5049747;28;20452;-67
2021/12/18 01:26:47;;;;;;;53.45;16.00;;;;;;;8.57;79.94;103317.31;5049330;28;20104;-67
2021/12/18 01:29:13;;;;;;;51.13;14.35;;;;;;;8.50;80.96;103320.84;5050121;28;20134;-67
2021/12/18 01:31:40;;;;;;;64.05;16.17;;;;;;;8.64;80.27;103328.66;5050304;28;20096;-67
2021/12/18 01:34:06;;;;;;;55.97;16.38;;;;;;;8.74;80.08;103325.16;5048075;28;20150;-67
2021/12/18 01:36:32;;;;;;;62.13;16.75;;;;;;;8.96;78.95;103320.69;5049711;28;20045;-67
2021/12/18 01:39:00;;;;;;;58.13;17.20;;;;;;;8.92;78.80;103324.22;5049352;28;20041;-67
2021/12/18 01:41:34;;;;;;;67.57;16.98;;;;;;;8.77;79.67;103325.13;5049491;28;20106;-67
2021/12/18 01:47:00;;;;;;;60.28;17.25;;;;;;;8.68;80.16;103315.56;5049581;28;20064;-67
2021/12/18 01:52:18;;;;;;;71.47;16.65;;;;;;;8.87;79.18;103312.91;5049193;28;20306;-67
2021/12/18 01:54:46;;;;;;;57.70;16.10;;;;;;;8.95;78.87;103303.25;5040443;28;20050;-67
2021/12/18 01:57:13;;;;;;;59.03;16.40;;;;;;;9.09;78.37;103311.94;5048852;28;20040;-67
2021/12/18 01:59:46;;;;;;;55.38;15.95;;;;;;;8.98;78.29;103314.56;5049047;28;20806;-68
2021/12/18 02:02:13;;;;;;;58.63;17.20;;;;;;;8.80;79.17;103310.28;5027224;28;20045;-68
2021/12/18 02:04:40;;;;;;;72.05;17.33;;;;;;;8.46;81.16;103299.94;5038938;28;20080;-67
2021/12/18 02:07:07;;;;;;;71.75;16.65;;;;;;;8.46;80.92;103300.78;5044222;28;20076;-67
2021/12/18 02:09:52;;;;;;;77.65;17.55;;;;;;;8.27;81.91;103306.91;5047314;28;20052;-67
2021/12/18 02:12:24;;;;;;;65.30;15.70;;;;;;;8.12;82.46;103299.09;5048877;28;20057;-67
2021/12/18 02:20:26;;;;;;;70.70;16.42;;;;;;;8.31;81.84;103309.53;5048960;28;20052;-68
2021/12/18 02:22:55;;;;;;;66.38;16.88;;;;;;;8.40;81.94;103302.56;5048939;28;20080;-67
2021/12/18 02:25:23;;;;;;;71.68;16.60;;;;;;;8.30;81.57;103306.94;5048537;28;20509;-67
2021/12/18 02:27:51;;;;;;;77.55;17.00;;;;;;;8.46;81.58;103303.41;5041892;28;20122;-65
2021/12/18 02:30:20;;;;;;;71.65;17.60;;;;;;;8.59;81.14;103299.91;5048733;28;20099;-65
2021/12/18 02:32:47;;;;;;;75.32;17.88;;;;;;;8.73;80.43;103298.13;5048869;28;20416;-65
2021/12/18 02:35:27;;;;;;;79.85;18.00;;;;;;;8.66;80.18;103291.16;5048555;28;20103;-66
2021/12/18 02:38:07;;;;;;;71.90;17.65;;;;;;;8.68;80.35;103291.16;5044929;28;20579;-66
2021/12/18 02:41:00;;;;;;;74.03;16.92;;;;;;;8.77;79.72;103294.63;5047798;28;20033;-65
2021/12/18 02:43:29;;;;;;;83.45;18.80;;;;;;;8.62;80.40;103292.03;5048554;28;20048;-65
2021/12/18 02:45:59;;;;;;;87.88;18.08;;;;;;;8.71;80.48;103288.53;5048468;28;20061;-65
2021/12/18 02:48:27;;;;;;;76.55;16.10;;;;;;;8.84;79.69;103294.56;5048871;28;20147;-65
2021/12/18 02:50:55;;;;;;;55.28;15.70;;;;;;;9.05;79.16;103291.91;5048497;28;20053;-68
2021/12/18 02:53:22;;;;;;;61.67;16.33;;;;;;;9.13;78.85;103288.34;5048146;28;20069;-68
2021/12/18 02:55:55;;;;;;;57.83;16.50;;;;;;;9.06;78.76;103299.72;5049180;28;20139;-67
2021/12/18 02:58:21;;;;;;;44.88;13.25;;;;;;;8.95;79.14;103291.03;5048507;28;20537;-67
2021/12/18 03:00:48;;;;;;;36.13;12.05;;;;;;;9.10;78.11;103292.72;5050104;28;20049;-67
2021/12/18 03:03:15;;;;;;;38.55;12.90;;;;;;;8.88;79.07;103291.06;5041980;28;20052;-67
2021/12/18 03:05:49;;;;;;;37.33;11.70;;;;;;;9.06;78.59;103291.00;5046864;28;20511;-67
2021/12/18 03:08:32;;;;;;;31.08;10.95;;;;;;;9.18;77.96;103290.94;5049933;28;20124;-67
2021/12/18 03:25:01;;;;;;;26.30;8.63;;;;;;;9.08;77.86;103279.66;5050021;28;20051;-67
2021/12/18 03:27:28;;;;;;;24.63;8.15;;;;;;;8.98;78.08;103284.94;5048822;28;20045;-67
2021/12/18 03:29:56;;;;;;;29.40;8.90;;;;;;;8.73;79.16;103277.19;5049208;28;20106;-67
2021/12/18 03:32:22;;;;;;;20.73;7.72;;;;;;;8.93;78.61;103271.00;5046697;28;20045;-67
2021/12/18 03:34:50;;;;;;;24.23;9.27;;;;;;;8.92;78.72;103274.50;5049632;28;20099;-67
2021/12/18 03:37:17;;;;;;;21.98;8.48;;;;;;;8.87;78.53;103274.50;5049083;28;20068;-67
2021/12/18 03:39:45;;;;;;;25.67;9.30;;;;;;;9.00;78.20;103277.94;5044433;28;20052;-67
2021/12/18 03:42:14;;;;;;;23.33;9.27;;;;;;;9.06;77.83;103265.69;5048869;28;20091;-67
2021/12/18 03:44:40;;;;;;;30.27;9.18;;;;;;;8.96;78.18;103273.59;5049699;28;20508;-67
2021/12/18 03:47:08;;;;;;;23.13;8.10;;;;;;;8.96;78.09;103266.63;5048829;28;20045;-67
2021/12/18 03:49:35;;;;;;;21.73;8.88;;;;;;;8.85;78.49;103270.16;5049041;28;20049;-67
2021/12/18 03:52:01;;;;;;;28.08;8.45;;;;;;;8.86;78.55;103258.84;5049215;28;20065;-67
2021/12/18 03:54:27;;;;;;;19.90;8.00;;;;;;;8.87;78.43;103265.81;5043404;28;20539;-68
2021/12/18 03:56:54;;;;;;;19.90;8.40;;;;;;;8.58;79.60;103264.16;5047215;28;20142;-68
2021/12/18 03:59:22;;;;;;;18.10;7.57;;;;;;;8.64;78.90;103265.91;5048490;28;20433;-69
2021/12/18 04:01:48;;;;;;;18.73;8.30;;;;;;;8.55;79.40;103272.03;5048594;28;20068;-68
2021/12/18 04:04:15;;;;;;;16.95;6.95;;;;;;;8.68;78.96;103273.69;5048425;28;20068;-68
2021/12/18 04:06:42;;;;;;;16.48;6.78;;;;;;;8.93;78.60;103277.13;5048282;28;20452;-68
2021/12/18 04:09:11;;;;;;;15.02;6.03;;;;;;;9.05;77.42;103284.03;5047983;28;20102;-68
2021/12/18 04:11:37;;;;;;;14.10;5.47;;;;;;;8.99;77.86;103278.81;5048584;28;20041;-68
2021/12/18 04:14:04;;;;;;;11.57;5.63;;;;;;;8.99;77.91;103269.22;5048238;28;20142;-68
2021/12/18 04:16:32;;;;;;;16.40;6.55;;;;;;;9.04;77.60;103271.81;5048429;28;20049;-68
2021/12/18 04:18:59;;;;;;;12.98;6.45;;;;;;;8.99;77.42;103276.19;5047248;28;20052;-68
2021/12/18 04:21:26;;;;;;;15.10;5.22;;;;;;;8.70;78.47;103277.19;5048972;28;20110;-67
2021/12/18 04:23:53;;;;;;;13.40;6.38;;;;;;;8.79;78.63;103273.69;5048152;28;20064;-67
2021/12/18 04:26:19;;;;;;;9.98;5.20;;;;;;;8.66;78.33;103271.97;5048445;28;20095;-67
2021/12/18 04:28:46;;;;;;;11.25;4.70;;;;;;;8.62;78.63;103278.97;5047996;28;20098;-67
2021/12/18 04:31:12;;;;;;;16.00;5.80;;;;;;;8.68;78.14;103275.47;5048363;28;20065;-67
2021/12/18 04:33:40;;;;;;;16.30;5.45;;;;;;;8.47;79.01;103265.94;5048051;28;20071;-67
2021/12/18 04:36:06;;;;;;;16.77;5.90;;;;;;;8.59;79.06;103265.91;5047362;28;20091;-67
2021/12/18 04:38:33;;;;;;;16.52;6.25;;;;;;;8.62;78.42;103265.88;5048093;28;20049;-67
2021/12/18 04:41:00;;;;;;;17.55;5.75;;;;;;;8.73;78.41;103261.50;5048637;28;20463;-67
2021/12/18 04:43:27;;;;;;;13.52;5.47;;;;;;;8.72;78.22;103264.97;5047796;28;20041;-67
2021/12/18 04:45:53;;;;;;;17.08;6.18;;;;;;;8.45;78.90;103266.81;5048561;28;20072;-67
2021/12/18 04:48:19;;;;;;;14.30;7.10;;;;;;;8.46;79.02;103269.41;5047809;28;20065;-67
2021/12/18 04:50:47;;;;;;;15.77;6.35;;;;;;;8.38;79.23;103268.59;5048752;28;20110;-67
2021/12/18 04:53:14;;;;;;;15.30;6.55;;;;;;;8.50;79.12;103270.31;5051957;28;20141;-67
2021/12/18 04:55:40;;;;;;;10.73;5.78;;;;;;;8.70;78.23;103269.34;5052183;28;20072;-67
2021/12/18 04:58:06;;;;;;;11.52;6.30;;;;;;;8.44;79.38;103265.06;5051610;28;20090;-67
2021/12/18 05:00:38;;;;;;;14.73;7.20;;;;;;;8.50;79.00;103268.53;5052350;28;20114;-67
2021/12/18 05:03:06;;;;;;;12.90;6.50;;;;;;;8.30;79.37;103259.88;5051411;28;20235;-67
2021/12/18 05:05:33;;;;;;;16.42;6.30;;;;;;;8.24;80.01;103265.94;5051589;28;20045;-67
2021/12/18 05:08:02;;;;;;;9.25;4.93;;;;;;;8.19;79.57;103257.28;5041683;28;20103;-67
2021/12/18 05:10:28;;;;;;;13.43;5.95;;;;;;;8.05;80.13;103258.16;5049901;28;20091;-67
2021/12/18 05:12:54;;;;;;;10.55;5.18;;;;;;;8.22;79.60;103265.09;5052038;28;20049;-67
2021/12/18 05:15:21;;;;;;;14.52;5.10;;;;;;;8.42;79.00;103264.22;5051656;28;20094;-67
2021/12/18 05:17:47;;;;;;;10.10;5.13;;;;;;;8.45;78.94;103258.97;5051643;28;20079;-67
2021/12/18 05:20:14;;;;;;;10.88;6.30;;;;;;;8.54;78.51;103262.44;5051503;28;20069;-67
2021/12/18 05:22:40;;;;;;;12.20;5.50;;;;;;;8.52;78.89;103247.63;5051498;28;20073;-68
2021/12/18 05:25:09;;;;;;;10.90;5.10;;;;;;;8.51;78.78;103258.94;5051398;28;20520;-67
2021/12/18 05:27:36;;;;;;;10.63;5.13;;;;;;;8.21;79.26;103262.47;5051429;28;20102;-67
2021/12/18 05:30:02;;;;;;;13.00;5.15;;;;;;;8.37;79.25;103260.75;5051547;28;20037;-67
2021/12/18 05:32:29;;;;;;;7.80;4.13;;;;;;;8.26;79.59;103266.84;5051865;28;20045;-67
2021/12/18 05:34:55;;;;;;;8.85;4.38;;;;;;;8.39;78.90;103266.84;5050341;28;20056;-67
2021/12/18 05:37:32;;;;;;;12.48;4.60;;;;;;;8.54;78.65;103266.78;5051140;28;20098;-67
2021/12/18 05:40:00;;;;;;;12.52;4.15;;;;;;;8.40;79.07;103271.19;5051558;28;20041;-67
2021/12/18 05:42:27;;;;;;;7.90;3.78;;;;;;;8.22;79.99;103261.63;5050646;28;20052;-67
2021/12/18 05:44:54;;;;;;;7.35;4.05;;;;;;;8.28;79.68;103266.81;5050972;28;20489;-67
2021/12/18 05:47:21;;;;;;;8.88;4.28;;;;;;;7.99;80.51;103259.03;5051157;28;20041;-67
2021/12/18 05:49:47;;;;;;;8.45;4.05;;;;;;;8.13;80.72;103264.25;5051041;28;20045;-67
2021/12/18 05:52:13;;;;;;;8.38;4.72;;;;;;;8.31;80.13;103269.47;5051605;28;20064;-67
2021/12/18 05:54:40;;;;;;;17.67;5.57;;;;;;;8.07;80.67;103266.84;5050613;28;20420;-67
2021/12/18 05:57:09;;;;;;;13.60;5.30;;;;;;;8.33;79.44;103257.25;5051156;28;20048;-67
2021/12/18 05:59:37;;;;;;;10.15;4.60;;;;;;;8.31;79.23;103262.47;5050161;28;20054;-67
2021/12/18 06:02:04;;;;;;;10.98;4.57;;;;;;;8.33;79.23;103257.25;5050385;28;20040;-68
2021/12/18 06:04:30;;;;;;;9.05;4.40;;;;;;;8.17;79.56;103258.13;5050325;28;20041;-68
2021/12/18 06:07:03;;;;;;;8.52;4.68;;;;;;;8.15;79.71;103260.75;5050654;28;20087;-67
2021/12/18 06:09:29;;;;;;;11.13;5.55;;;;;;;7.94;80.97;103259.91;5046628;28;20041;-67
2021/12/18 06:11:56;;;;;;;13.20;4.55;;;;;;;8.00;80.88;103259.91;5050791;28;20457;-67
2021/12/18 06:14:22;;;;;;;12.15;5.35;;;;;;;8.00;80.60;103260.78;5050411;28;20060;-67
2021/12/18 06:16:50;;;;;;;10.60;4.75;;;;;;;7.80;81.47;103260.78;5050406;28;20049;-67
2021/12/18 06:19:16;;;;;;;15.77;5.53;;;;;;;8.15;79.51;103263.38;5050682;28;20425;-67
2021/12/18 06:21:43;;;;;;;14.25;5.07;;;;;;;8.21;78.97;103255.50;5050103;28;20492;-67
2021/12/18 06:24:09;;;;;;;15.00;5.97;;;;;;;8.20;79.35;103251.16;5050349;28;20118;-67
2021/12/18 06:26:35;;;;;;;14.27;5.25;;;;;;;8.11;79.70;103243.34;5050577;28;20187;-68
2021/12/18 06:29:02;;;;;;;9.23;4.85;;;;;;;7.88;80.34;103244.22;5050744;28;20049;-67
2021/12/18 06:31:28;;;;;;;9.40;3.83;;;;;;;8.00;79.58;103245.09;5050283;28;20253;-67
2021/12/18 06:33:56;;;;;;;10.50;4.70;;;;;;;8.28;78.84;103244.19;5050206;28;20133;-67
2021/12/18 06:36:22;;;;;;;12.40;5.43;;;;;;;8.19;79.35;103243.34;5048038;28;20171;-67
2021/12/18 06:38:49;;;;;;;10.65;4.53;;;;;;;8.40;78.82;103251.16;5045301;28;20045;-67
2021/12/18 06:41:15;;;;;;;10.63;4.43;;;;;;;8.42;78.35;103238.97;5049832;28;20495;-67
2021/12/18 06:43:41;;;;;;;11.82;4.68;;;;;;;8.67;77.29;103242.34;5050167;28;20091;-67
2021/12/18 06:46:08;;;;;;;8.60;4.25;;;;;;;8.39;78.39;103253.78;5050612;28;20049;-67
2021/12/18 06:48:35;;;;;;;7.95;3.85;;;;;;;8.31;78.52;103253.81;5050089;28;20064;-67
2021/12/18 06:51:03;;;;;;;10.07;4.18;;;;;;;8.27;78.87;103250.28;5044034;28;20176;-67
2021/12/18 06:53:30;;;;;;;9.73;4.18;;;;;;;8.39;78.68;103252.00;5058963;28;20040;-67
2021/12/18 06:55:57;;;;;;;10.18;3.95;;;;;;;8.68;77.23;103250.16;5049249;28;20137;-67
2021/12/18 06:58:23;;;;;;;7.93;3.58;;;;;;;8.46;77.72;103250.28;5049792;28;20091;-67
2021/12/18 07:00:52;;;;;;;13.27;4.95;;;;;;;8.53;77.96;103241.53;5050107;28;20104;-67
2021/12/18 07:03:19;;;;;;;9.88;4.00;;;;;;;8.70;77.82;103251.03;5048343;28;20049;-67
2021/12/18 07:05:46;;;;;;;11.63;4.35;;;;;;;8.66;77.65;103246.69;5049921;28;20666;-67
2021/12/18 07:08:13;;;;;;;11.50;4.05;;;;;;;8.51;78.05;103246.75;5049436;28;20073;-67
2021/12/18 07:10:40;;;;;;;9.75;4.32;;;;;;;8.23;79.08;103243.31;5049730;28;20095;-68
2021/12/18 07:13:06;;;;;;;12.43;4.70;;;;;;;8.34;78.79;103235.50;5048951;28;20045;-67
2021/12/18 07:15:33;;;;;;;13.65;4.70;;;;;;;8.58;78.34;103234.50;5049245;28;20187;-67
2021/12/18 07:18:00;;;;;;;9.43;5.13;;;;;;;8.61;77.84;103240.59;5049550;28;20063;-67
2021/12/18 07:20:27;;;;;;;12.43;4.30;;;;;;;8.82;77.23;103241.41;5048713;28;20102;-67
2021/12/18 07:22:54;;;;;;;10.25;4.53;;;;;;;8.89;76.96;103235.25;5049780;28;20045;-67
2021/12/18 07:25:22;;;;;;;16.08;4.88;;;;;;;8.78;77.52;103241.44;5049064;28;20103;-67
2021/12/18 07:27:48;;;;;;;11.00;4.53;;;;;;;8.55;78.56;103235.41;5049164;28;20505;-67
2021/12/18 07:30:15;;;;;;;13.57;3.85;;;;;;;8.66;78.39;103245.81;5049160;28;20098;-67
2021/12/18 07:32:42;;;;;;;9.60;4.28;;;;;;;8.36;79.69;103233.72;5049556;28;20106;-67
2021/12/18 07:35:10;;;;;;;11.20;4.57;;;;;;;8.18;80.70;103233.75;5047666;28;20037;-67
2021/12/18 07:37:37;;;;;;;12.90;4.70;;;;;;;8.38;79.95;103226.75;5048815;28;20045;-67
2021/12/18 07:40:04;;;;;;;13.07;4.40;;;;;;;7.67;83.21;103229.44;5048952;28;20052;-67
2021/12/18 07:42:32;;;;;;;14.35;4.88;;;;;;;8.13;81.46;103240.75;5049673;28;20138;-67
2021/12/18 07:44:59;;;;;;;14.52;5.80;;;;;;;8.06;82.16;103234.63;5049213;28;20102;-67
2021/12/18 07:47:25;;;;;;;16.83;6.32;;;;;;;8.24;80.82;103231.97;5048576;28;20037;-67
2021/12/18 07:49:52;;;;;;;14.20;6.65;;;;;;;8.43;80.71;103230.22;5047871;28;20134;-67
2021/12/18 07:52:18;;;;;;;11.25;5.38;;;;;;;8.69;79.28;103225.75;5048971;28;20068;-65
2021/12/18 07:54:44;;;;;;;10.38;4.70;;;;;;;8.41;80.01;103228.50;5048260;28;20123;-65
2021/12/18 07:57:11;;;;;;;11.98;4.32;;;;;;;8.33;80.94;103236.34;5048932;28;20458;-66
2021/12/18 07:59:39;;;;;;;7.15;3.50;;;;;;;8.34;81.04;103234.63;5048223;28;20049;-66
2021/12/18 08:02:05;;;;;;;12.25;3.78;;;;;;;8.13;81.11;103223.28;5048545;28;20068;-66
2021/12/18 08:04:32;;;;;;;7.20;3.60;;;;;;;8.50;80.42;103218.84;5043366;28;20144;-66
2021/12/18 08:06:58;;;;;;;6.13;3.17;;;;;;;8.71;79.47;103221.41;5047753;28;20566;-66
2021/12/18 08:09:25;;;;;;;10.10;3.42;;;;;;;8.38;80.10;103216.31;5047278;28;20048;-66
2021/12/18 08:11:51;;;;;;;9.52;3.47;;;;;;;8.56;80.06;103218.84;5047450;28;20075;-66
2021/12/18 08:14:17;;;;;;;7.35;3.78;;;;;;;8.30;80.95;103215.47;5048418;28;20076;-66
2021/12/18 08:16:47;;;;;;;10.02;3.78;;;;;;;8.35;80.88;103216.31;5048793;28;20049;-66
2021/12/18 08:19:14;;;;;;;7.75;3.92;;;;;;;8.51;80.04;103219.72;5047865;28;20098;-66
2021/12/18 08:21:40;;;;;;;7.30;3.50;;;;;;;8.56;79.71;103218.84;5048456;28;20166;-66
2021/12/18 08:24:07;;;;;;;7.18;3.20;;;;;;;8.84;79.25;103216.09;5047989;28;20387;-66
2021/12/18 08:26:33;;;;;;;8.23;3.80;;;;;;;8.67;79.15;103224.91;5047416;28;20041;-66
2021/12/18 08:28:59;;;;;;;9.18;4.10;;;;;;;8.55;79.83;103217.09;5047715;28;20072;-66
2021/12/18 08:31:26;;;;;;;9.13;3.83;;;;;;;8.91;78.74;103223.03;5048589;28;20075;-66
2021/12/18 08:33:53;;;;;;;5.90;3.33;;;;;;;8.77;79.42;103215.25;5046614;28;25703;-65
2021/12/18 08:36:20;;;;;;;9.10;3.40;;;;;;;9.02;78.38;103211.63;5048393;28;20072;-66
2021/12/18 08:38:46;;;;;;;6.47;3.13;;;;;;;9.17;77.97;103213.28;5047429;28;20502;-66
2021/12/18 08:41:12;;;;;;;8.38;3.15;;;;;;;9.16;77.16;103215.03;5045171;28;20045;-66
2021/12/18 08:43:39;;;;;;;4.88;2.85;;;;;;;9.01;77.86;103215.16;5048246;28;20406;-66
2021/12/18 08:46:05;;;;;;;6.15;2.50;;;;;;;8.95;78.58;103209.06;5047708;28;20554;-66
2021/12/18 08:48:31;;;;;;;4.05;2.40;;;;;;;8.89;78.60;103211.72;5048077;28;20099;-66
2021/12/18 08:50:59;;;;;;;3.08;2.30;;;;;;;9.09;77.77;103207.25;5048153;28;20095;-66
2021/12/18 08:53:25;;;;;;;2.88;1.95;;;;;;;9.00;78.78;103205.53;5032809;28;20098;-66
2021/12/18 08:55:52;;;;;;;3.03;2.70;;;;;;;9.24;77.29;103202.75;5048115;28;20072;-66
2021/12/18 08:58:18;;;;;;;4.65;2.22;;;;;;;9.24;77.26;103202.75;5047552;28;20119;-66
2021/12/18 09:00:45;;;;;;;2.80;1.65;;;;;;;9.35;77.04;103202.66;5048083;28;20053;-66
2021/12/18 09:03:11;;;;;;;2.85;2.00;;;;;;;8.95;77.89;103216.91;5045604;28;20122;-66
2021/12/18 09:05:37;;;;;;;3.55;2.40;;;;;;;8.88;78.72;103217.81;5047486;28;20122;-66
2021/12/18 09:08:05;;;;;;;2.47;1.98;;;;;;;8.85;78.53;103212.59;5044717;28;20084;-66
2021/12/18 09:10:33;;;;;;;3.05;1.88;;;;;;;8.89;78.36;103212.59;5047167;28;20099;-66
2021/12/18 09:12:59;;;;;;;5.55;2.00;;;;;;;9.01;77.87;103199.44;5048342;28;20154;-66
2021/12/18 09:15:27;;;;;;;2.53;1.77;;;;;;;9.14;77.76;103206.31;5047417;28;20052;-66
2021/12/18 09:17:54;;;;;;;1.90;1.60;;;;;;;9.36;76.83;103190.44;5047274;28;20045;-66
2021/12/18 09:20:20;;;;;;;3.60;1.67;;;;;;;9.07;78.46;103199.38;5047699;28;20455;-66
2021/12/18 09:22:46;;;;;;;3.25;1.70;;;;;;;9.26;77.51;103194.91;5047770;28;20049;-66
2021/12/18 09:25:14;;;;;;;3.15;1.70;;;;;;;9.09;77.70;103192.38;5048058;28;20476;-66
2021/12/18 09:27:42;;;;;;;4.95;2.22;;;;;;;9.05;78.09;103195.06;5046397;28;20489;-66
2021/12/18 09:30:14;;;;;;;2.20;1.95;;;;;;;9.07;77.61;103188.06;5047716;28;20040;-66
2021/12/18 09:32:41;;;;;;;5.82;2.60;;;;;;;9.06;77.12;103187.19;5047511;28;20068;-66
2021/12/18 09:35:09;;;;;;;4.35;2.85;;;;;;;9.19;77.06;103178.38;5047582;28;20064;-66
2021/12/18 09:37:36;;;;;;;3.25;2.70;;;;;;;9.31;76.54;103184.41;5048597;28;20075;-66
2021/12/18 09:40:03;;;;;;;3.08;2.40;;;;;;;8.99;77.28;103179.38;5044942;28;20040;-66
2021/12/18 09:42:31;;;;;;;5.38;2.22;;;;;;;8.66;78.66;103181.31;5051222;28;20090;-66
2021/12/18 09:44:57;;;;;;;4.15;2.42;;;;;;;8.65;78.91;103178.69;5051015;28;20069;-66
2021/12/18 09:47:24;;;;;;;4.70;2.95;;;;;;;8.49;79.53;103177.91;5051138;28;20071;-64
2021/12/18 09:49:51;;;;;;;3.80;2.35;;;;;;;8.73;79.15;103169.94;5051418;28;20049;-64
2021/12/18 09:52:17;;;;;;;2.83;2.47;;;;;;;8.82;78.93;103157.69;5051158;28;20095;-64
2021/12/18 09:54:44;;;;;;;3.33;2.83;;;;;;;8.77;78.38;103157.72;5050475;28;20098;-66
2021/12/18 09:57:10;;;;;;;4.80;3.08;;;;;;;8.81;79.10;103151.59;5049963;28;20045;-66
2021/12/18 09:59:38;;;;;;;6.10;3.63;;;;;;;9.23;77.91;103151.31;5049925;28;20099;-66
2021/12/18 10:02:05;;;;;;;7.75;3.70;;;;;;;9.27;77.08;103142.50;5051298;28;20048;-66
2021/12/18 10:04:33;;;;;;;6.93;3.70;;;;;;;9.22;76.60;103146.94;5050341;28;20045;-66
2021/12/18 10:07:14;;;;;;;3.70;2.83;;;;;;;8.74;78.45;103137.69;5050929;28;20045;-64
2021/12/18 10:09:41;;;;;;;5.55;2.95;;;;;;;8.67;78.88;103130.75;5050415;28;20055;-64
2021/12/18 10:12:16;;;;;;;4.80;2.50;;;;;;;8.91;78.59;103123.59;5050037;28;20048;-64
2021/12/18 10:14:46;;;;;;;6.03;2.40;;;;;;;9.04;78.06;103135.72;5049666;28;20041;-64
2021/12/18 10:17:30;;;;;;;2.28;2.00;;;;;;;9.06;78.20;103129.59;5050417;28;20040;-64
2021/12/18 10:20:16;;;;;;;4.07;2.50;;;;;;;9.11;77.73;103129.56;5051130;28;20048;-64
2021/12/18 10:22:48;;;;;;;5.43;2.47;;;;;;;9.46;76.65;103127.50;5049765;28;20065;-65
2021/12/18 10:25:16;;;;;;;3.35;2.20;;;;;;;9.36;75.78;103127.63;5050335;28;20076;-65
2021/12/18 10:27:47;;;;;;;3.10;2.00;;;;;;;8.91;77.42;103128.84;5050521;28;20099;-65
2021/12/18 10:30:20;;;;;;;5.45;2.20;;;;;;;8.79;77.69;103124.56;5047881;28;20133;-66
2021/12/18 10:32:56;;;;;;;3.30;2.17;;;;;;;8.97;77.56;103113.97;5047434;28;20053;-67
2021/12/18 10:35:23;;;;;;;2.92;1.92;;;;;;;8.99;77.99;103116.56;5050672;28;20476;-67
2021/12/18 10:37:49;;;;;;;3.80;2.22;;;;;;;9.19;77.18;103114.69;5048966;28;20094;-66
2021/12/18 10:40:16;;;;;;;5.07;2.38;;;;;;;8.96;77.56;103114.84;5048127;28;20104;-65
2021/12/18 10:42:45;;;;;;;3.72;1.95;;;;;;;9.05;77.59;103106.94;5049900;28;20061;-65
2021/12/18 10:45:17;;;;;;;3.47;2.63;;;;;;;8.90;78.41;103108.81;5049616;28;20123;-65
2021/12/18 10:47:50;;;;;;;3.78;2.47;;;;;;;8.98;77.99;103099.16;5050254;28;20060;-67
2021/12/18 10:50:20;;;;;;;5.20;2.17;;;;;;;9.03;77.74;103102.59;5048896;28;20497;-65
2021/12/18 10:52:53;;;;;;;4.85;2.80;;;;;;;8.99;77.97;103104.34;5049701;28;20587;-65
2021/12/18 10:55:26;;;;;;;4.63;2.38;;;;;;;8.93;78.33;103101.81;5049571;28;20064;-66
2021/12/18 10:57:53;;;;;;;3.20;2.55;;;;;;;8.83;78.96;103097.53;5049712;28;20045;-66
2021/12/18 11:00:32;;;;;;;3.72;2.40;;;;;;;8.54;79.93;103092.44;5047511;28;20122;-66
2021/12/18 11:03:12;;;;;;;4.22;1.85;;;;;;;8.51;80.12;103092.47;5049588;28;20036;-66
2021/12/18 11:05:38;;;;;;;4.43;1.50;;;;;;;8.85;79.52;103098.38;5041881;28;20048;-66
2021/12/18 11:08:10;;;;;;;7.38;2.22;;;;;;;8.65;79.83;103100.22;5048835;28;20045;-66
2021/12/18 11:10:55;;;;;;;3.00;1.73;;;;;;;8.50;80.96;103095.13;5048850;28;20128;-66
2021/12/18 11:13:45;;;;;;;5.00;2.70;;;;;;;8.53;80.56;103085.50;5049080;28;20051;-66
2021/12/18 11:16:13;;;;;;;6.57;2.33;;;;;;;8.76;80.11;103093.19;5049603;28;20452;-66
2021/12/18 11:18:41;;;;;;;3.65;1.80;;;;;;;8.73;79.77;103086.22;5049223;28;20497;-66
2021/12/18 11:21:07;;;;;;;3.28;2.30;;;;;;;9.17;78.79;103080.66;5044880;28;20094;-66
2021/12/18 11:23:40;;;;;;;5.22;3.28;;;;;;;8.96;79.40;103086.06;5050164;28;20080;-66
2021/12/18 11:26:08;;;;;;;3.95;2.38;;;;;;;8.98;79.32;103083.47;5049091;28;20041;-66
2021/12/18 11:28:36;;;;;;;5.13;1.77;;;;;;;8.78;79.98;103081.84;5048934;28;20555;-66
2021/12/18 11:31:03;;;;;;;3.83;2.10;;;;;;;8.79;79.86;103088.78;5048313;28;20493;-66
2021/12/18 11:33:32;;;;;;;2.55;1.90;;;;;;;8.86;79.69;103080.91;5049173;28;20043;-66
2021/12/18 11:35:59;;;;;;;2.47;1.80;;;;;;;8.93;78.72;103069.53;5049194;28;20508;-66
2021/12/18 11:38:26;;;;;;;2.33;1.48;;;;;;;8.97;77.78;103066.88;5042919;28;20508;-66
2021/12/18 11:40:53;;;;;;;2.35;1.67;;;;;;;8.80;79.24;103059.16;5047863;28;20041;-66
2021/12/18 11:43:33;;;;;;;1.60;1.40;;;;;;;9.33;77.34;103063.06;5048610;28;20489;-66
2021/12/18 11:46:00;;;;;;;2.58;1.80;;;;;;;9.26;76.56;103050.91;5047753;28;20131;-65
2021/12/18 11:48:26;;;;;;;5.97;2.45;;;;;;;8.82;78.04;103051.31;5047891;28;20091;-65
2021/12/18 11:50:54;;;;;;;1.50;1.27;;;;;;;8.97;77.79;103039.84;5047968;28;20087;-65
2021/12/18 11:53:31;;;;;;;2.42;1.40;;;;;;;9.04;77.15;103037.16;5043092;28;20084;-65
2021/12/18 11:56:00;;;;;;;3.30;1.80;;;;;;;9.19;76.58;103038.78;5048575;28;20068;-65
2021/12/18 11:58:28;;;;;;;2.28;1.58;;;;;;;9.42;76.16;103041.16;5047833;28;20079;-65
2021/12/18 12:00:59;;;;;;;48.35;25.30;;;;;;;9.31;76.12;103028.19;5043358;28;20284;-64
2021/12/18 12:03:30;;;;;;;104.82;36.97;;;;;;;9.13;76.91;103028.34;5047778;28;20485;-64